createdAt,value
2019-06-01T00:00:12.038Z,0.00
2019-06-01T00:01:08.249Z,0.00
2019-06-01T00:02:08.231Z,0.00
2019-06-01T00:03:08.219Z,0.00
2019-06-01T00:04:08.223Z,0.00
2019-06-01T00:05:08.189Z,0.00
2019-06-01T00:06:08.253Z,0.00
2019-06-01T00:07:08.183Z,0.00
2019-06-01T00:08:08.554Z,0.00
2019-06-01T00:09:08.182Z,0.00
2019-06-01T00:10:08.141Z,0.00
2019-06-01T00:11:08.127Z,0.00
2019-06-01T00:12:08.111Z,0.00
2019-06-01T00:13:08.101Z,0.00
2019-06-01T00:14:08.123Z,0.00
2019-06-01T00:15:16.613Z,0.00
2019-06-01T00:16:08.069Z,0.00
2019-06-01T00:17:08.071Z,0.00
2019-06-01T00:18:08.047Z,0.00
2019-06-01T00:19:08.051Z,0.00
2019-06-01T00:20:08.025Z,0.00
2019-06-01T00:21:08.010Z,0.00
2019-06-01T00:22:08.003Z,0.00
2019-06-01T00:23:07.989Z,0.00
2019-06-01T00:24:07.997Z,0.00
2019-06-01T00:25:07.973Z,0.00
2019-06-01T00:26:07.957Z,0.00
2019-06-01T00:27:07.958Z,0.00
2019-06-01T00:28:07.937Z,0.00
2019-06-01T00:29:07.952Z,0.00
2019-06-01T00:30:07.928Z,0.00
2019-06-01T00:31:07.899Z,0.00
2019-06-01T00:32:07.889Z,0.00
2019-06-01T00:33:07.956Z,0.00
2019-06-01T00:34:07.890Z,0.00
2019-06-01T00:35:07.858Z,0.00
2019-06-01T00:36:07.886Z,0.00
2019-06-01T00:37:07.835Z,0.00
2019-06-01T00:38:07.829Z,0.00
2019-06-01T00:39:07.834Z,0.00
2019-06-01T00:40:07.824Z,0.00
2019-06-01T00:41:07.791Z,0.00
2019-06-01T00:42:07.783Z,0.00
2019-06-01T00:43:07.768Z,0.00
2019-06-01T00:44:07.899Z,0.00
2019-06-01T00:45:07.743Z,0.00
2019-06-01T00:46:07.737Z,0.00
2019-06-01T00:47:07.725Z,0.00
2019-06-01T00:48:07.721Z,0.00
2019-06-01T00:49:07.740Z,0.00
2019-06-01T00:50:07.687Z,0.00
2019-06-01T00:51:07.681Z,0.00
2019-06-01T00:52:07.678Z,0.00
2019-06-01T00:53:07.666Z,0.00
2019-06-01T00:54:07.664Z,0.00
2019-06-01T00:55:07.638Z,0.00
2019-06-01T00:56:07.623Z,0.00
2019-06-01T00:57:07.615Z,0.00
2019-06-01T00:58:07.607Z,0.00
2019-06-01T00:59:07.603Z,0.00
2019-06-01T01:00:07.580Z,0.00
2019-06-01T01:01:07.563Z,0.00
2019-06-01T01:02:07.567Z,0.00
2019-06-01T01:03:07.548Z,0.00
2019-06-01T01:04:07.557Z,0.00
2019-06-01T01:05:07.526Z,0.00
2019-06-01T01:06:07.513Z,0.00
2019-06-01T01:07:07.498Z,0.00
2019-06-01T01:08:07.486Z,0.00
2019-06-01T01:09:07.499Z,0.00
2019-06-01T01:10:07.485Z,0.00
2019-06-01T01:11:07.501Z,0.00
2019-06-01T01:12:07.449Z,0.00
2019-06-01T01:13:07.434Z,0.00
2019-06-01T01:14:07.425Z,0.00
2019-06-01T01:15:07.455Z,0.00
2019-06-01T01:16:07.433Z,0.00
2019-06-01T01:17:10.295Z,0.00
2019-06-01T01:18:07.450Z,0.00
2019-06-01T01:19:07.370Z,0.00
2019-06-01T01:20:07.372Z,0.00
2019-06-01T01:21:07.341Z,0.00
2019-06-01T01:22:07.335Z,0.00
2019-06-01T01:23:07.321Z,0.00
2019-06-01T01:24:07.321Z,0.00
2019-06-01T01:25:07.314Z,0.00
2019-06-01T01:26:07.295Z,0.00
2019-06-01T01:27:07.276Z,0.00
2019-06-01T01:28:07.279Z,0.00
2019-06-01T01:29:07.256Z,0.00
2019-06-01T01:30:07.263Z,0.00
2019-06-01T01:31:13.900Z,0.00
2019-06-01T01:32:08.218Z,0.00
2019-06-01T01:33:07.217Z,0.00
2019-06-01T01:34:07.206Z,0.00
2019-06-01T01:35:07.212Z,0.00
2019-06-01T01:36:07.189Z,0.00
2019-06-01T01:37:07.167Z,0.00
2019-06-01T01:38:07.155Z,0.00
2019-06-01T01:39:07.152Z,0.00
2019-06-01T01:40:07.149Z,0.00
2019-06-01T01:41:07.126Z,0.00
2019-06-01T01:42:07.108Z,0.00
2019-06-01T01:43:07.102Z,0.00
2019-06-01T01:44:07.085Z,0.00
2019-06-01T01:45:07.117Z,0.00
2019-06-01T01:46:07.081Z,0.00
2019-06-01T01:47:07.055Z,0.00
2019-06-01T01:48:07.046Z,0.00
2019-06-01T01:49:07.048Z,0.00
2019-06-01T01:50:07.048Z,0.00
2019-06-01T01:51:07.033Z,0.00
2019-06-01T01:52:07.005Z,0.00
2019-06-01T01:53:06.993Z,0.00
2019-06-01T01:54:06.975Z,0.00
2019-06-01T01:55:07.009Z,0.00
2019-06-01T01:56:06.963Z,0.00
2019-06-01T01:57:07.327Z,0.00
2019-06-01T01:58:06.932Z,0.00
2019-06-01T01:59:06.928Z,0.00
2019-06-01T02:00:06.953Z,0.00
2019-06-01T02:01:21.353Z,0.00
2019-06-01T02:02:07.888Z,0.00
2019-06-01T02:03:06.883Z,0.00
2019-06-01T02:04:06.878Z,0.00
2019-06-01T02:05:06.877Z,0.00
2019-06-01T02:06:06.845Z,0.00
2019-06-01T02:07:06.834Z,0.00
2019-06-01T02:08:06.830Z,0.00
2019-06-01T02:09:06.824Z,0.00
2019-06-01T02:10:06.835Z,0.00
2019-06-01T02:11:06.792Z,0.00
2019-06-01T02:12:06.787Z,0.00
2019-06-01T02:13:06.767Z,0.00
2019-06-01T02:14:06.759Z,4.00
2019-06-01T02:15:06.765Z,4.00
2019-06-01T02:16:06.731Z,4.00
2019-06-01T02:17:06.728Z,0.00
2019-06-01T02:18:06.718Z,0.00
2019-06-01T02:19:06.708Z,4.00
2019-06-01T02:20:06.722Z,4.00
2019-06-01T02:21:06.676Z,4.00
2019-06-01T02:22:06.664Z,4.00
2019-06-01T02:23:06.663Z,4.00
2019-06-01T02:24:06.649Z,8.00
2019-06-01T02:25:06.652Z,4.00
2019-06-01T02:26:06.617Z,8.00
2019-06-01T02:27:06.613Z,8.00
2019-06-01T02:28:06.603Z,4.00
2019-06-01T02:29:06.590Z,8.00
2019-06-01T02:30:06.598Z,12.00
2019-06-01T02:31:06.575Z,8.00
2019-06-01T02:32:06.819Z,12.00
2019-06-01T02:33:06.555Z,16.00
2019-06-01T02:34:06.613Z,16.00
2019-06-01T02:35:06.539Z,20.00
2019-06-01T02:36:06.515Z,20.00
2019-06-01T02:37:06.510Z,20.00
2019-06-01T02:38:06.486Z,20.00
2019-06-01T02:39:06.477Z,24.00
2019-06-01T02:40:06.504Z,28.00
2019-06-01T02:41:06.475Z,28.00
2019-06-01T02:42:06.451Z,32.00
2019-06-01T02:43:07.116Z,36.00
2019-06-01T02:44:06.544Z,40.00
2019-06-01T02:45:06.424Z,44.00
2019-06-01T02:46:07.522Z,44.00
2019-06-01T02:47:06.497Z,48.00
2019-06-01T02:48:06.736Z,52.00
2019-06-01T02:49:06.531Z,60.00
2019-06-01T02:50:06.592Z,60.00
2019-06-01T02:51:06.345Z,68.00
2019-06-01T02:52:06.336Z,72.00
2019-06-01T02:53:06.341Z,76.00
2019-06-01T02:54:06.439Z,80.00
2019-06-01T02:55:06.512Z,88.00
2019-06-01T02:56:06.326Z,92.00
2019-06-01T02:57:06.304Z,96.00
2019-06-01T02:58:06.697Z,104.00
2019-06-01T02:59:06.745Z,108.00
2019-06-01T03:00:06.709Z,116.00
2019-06-01T03:01:07.037Z,124.00
2019-06-01T03:02:10.641Z,132.00
2019-06-01T03:03:07.209Z,136.00
2019-06-01T03:04:07.768Z,148.00
2019-06-01T03:05:07.568Z,152.00
2019-06-01T03:06:06.187Z,160.00
2019-06-01T03:07:07.453Z,172.00
2019-06-01T03:08:06.151Z,180.00
2019-06-01T03:09:06.814Z,188.00
2019-06-01T03:10:07.057Z,200.00
2019-06-01T03:11:06.124Z,212.00
2019-06-01T03:12:06.387Z,224.00
2019-06-01T03:13:06.217Z,232.00
2019-06-01T03:14:06.604Z,248.00
2019-06-01T03:15:06.537Z,260.00
2019-06-01T03:16:06.627Z,272.00
2019-06-01T03:17:06.056Z,284.00
2019-06-01T03:18:06.054Z,296.00
2019-06-01T03:19:06.044Z,304.00
2019-06-01T03:20:06.359Z,312.00
2019-06-01T03:21:06.374Z,320.00
2019-06-01T03:22:07.266Z,328.00
2019-06-01T03:23:05.996Z,336.00
2019-06-01T03:24:06.061Z,344.00
2019-06-01T03:25:05.997Z,356.00
2019-06-01T03:26:06.283Z,364.00
2019-06-01T03:27:06.349Z,376.00
2019-06-01T03:28:06.237Z,388.00
2019-06-01T03:29:07.282Z,396.00
2019-06-01T03:30:08.531Z,408.00
2019-06-01T03:31:08.390Z,420.00
2019-06-01T03:32:27.620Z,436.00
2019-06-01T03:33:08.572Z,444.00
2019-06-01T03:34:06.930Z,452.00
2019-06-01T03:35:06.769Z,464.00
2019-06-01T03:36:06.915Z,472.00
2019-06-01T03:37:06.967Z,480.00
2019-06-01T03:38:06.940Z,492.00
2019-06-01T03:39:06.097Z,500.00
2019-06-01T03:40:11.044Z,512.00
2019-06-01T03:41:06.810Z,520.00
2019-06-01T03:42:05.770Z,528.00
2019-06-01T03:43:05.761Z,544.00
2019-06-01T03:44:06.557Z,556.00
2019-06-01T03:45:05.746Z,568.00
2019-06-01T03:46:06.669Z,580.00
2019-06-01T03:47:05.743Z,596.00
2019-06-01T03:48:06.766Z,616.00
2019-06-01T03:49:05.816Z,632.00
2019-06-01T03:50:06.925Z,652.00
2019-06-01T03:51:05.791Z,668.00
2019-06-01T03:52:06.866Z,688.00
2019-06-01T03:53:05.873Z,704.00
2019-06-01T03:54:06.913Z,716.00
2019-06-01T03:55:05.903Z,728.00
2019-06-01T03:56:05.648Z,740.00
2019-06-01T03:57:05.609Z,744.00
2019-06-01T03:58:05.612Z,752.00
2019-06-01T03:59:05.591Z,768.00
2019-06-01T04:00:05.572Z,776.00
2019-06-01T04:01:05.595Z,788.00
2019-06-01T04:02:05.556Z,800.00
2019-06-01T04:03:05.547Z,816.00
2019-06-01T04:04:05.528Z,828.00
2019-06-01T04:05:05.707Z,844.00
2019-06-01T04:06:05.528Z,864.00
2019-06-01T04:07:06.355Z,880.00
2019-06-01T04:08:05.628Z,892.00
2019-06-01T04:09:05.634Z,904.00
2019-06-01T04:10:05.771Z,916.00
2019-06-01T04:11:05.703Z,928.00
2019-06-01T04:12:05.569Z,940.00
2019-06-01T04:13:05.644Z,948.00
2019-06-01T04:14:05.665Z,956.00
2019-06-01T04:15:10.216Z,956.00
2019-06-01T04:16:06.421Z,964.00
2019-06-01T04:17:06.105Z,980.00
2019-06-01T04:18:06.079Z,996.00
2019-06-01T04:19:06.012Z,1004.00
2019-06-01T04:20:05.997Z,1008.00
2019-06-01T04:21:06.020Z,1020.00
2019-06-01T04:22:05.887Z,1024.00
2019-06-01T04:23:06.185Z,1032.00
2019-06-01T04:24:05.978Z,1040.00
2019-06-01T04:25:05.987Z,1048.00
2019-06-01T04:26:05.982Z,1052.00
2019-06-01T04:27:06.113Z,1064.00
2019-06-01T04:28:06.233Z,1076.00
2019-06-01T04:29:06.373Z,1092.00
2019-06-01T04:30:06.672Z,1112.00
2019-06-01T04:31:06.412Z,1128.00
2019-06-01T04:32:06.433Z,1152.00
2019-06-01T04:33:05.211Z,1188.00
2019-06-01T04:34:05.196Z,1228.00
2019-06-01T04:35:05.189Z,1276.00
2019-06-01T04:36:05.173Z,1320.00
2019-06-01T04:37:05.285Z,1356.00
2019-06-01T04:38:05.148Z,1332.00
2019-06-01T04:39:05.341Z,1332.00
2019-06-01T04:40:05.326Z,1348.00
2019-06-01T04:41:05.698Z,1356.00
2019-06-01T04:42:05.547Z,1368.00
2019-06-01T04:43:05.720Z,1396.00
2019-06-01T04:44:05.910Z,1432.00
2019-06-01T04:45:06.710Z,1468.00
2019-06-01T04:46:06.138Z,1516.00
2019-06-01T04:47:06.574Z,1572.00
2019-06-01T04:48:06.306Z,1664.00
2019-06-01T04:49:05.035Z,1764.00
2019-06-01T04:50:05.019Z,1896.00
2019-06-01T04:51:05.002Z,2024.00
2019-06-01T04:52:05.026Z,2104.00
2019-06-01T04:53:04.984Z,2120.00
2019-06-01T04:54:04.979Z,2000.00
2019-06-01T04:55:05.247Z,2200.00
2019-06-01T04:56:04.952Z,2172.00
2019-06-01T04:57:04.963Z,2124.00
2019-06-01T04:58:04.926Z,2096.00
2019-06-01T04:59:05.008Z,1920.00
2019-06-01T05:00:15.349Z,1804.00
2019-06-01T05:01:06.933Z,1764.00
2019-06-01T05:02:05.632Z,1716.00
2019-06-01T05:03:07.267Z,1680.00
2019-06-01T05:04:04.982Z,1700.00
2019-06-01T05:05:04.909Z,1752.00
2019-06-01T05:06:05.101Z,1812.00
2019-06-01T05:07:05.097Z,1880.00
2019-06-01T05:08:05.187Z,1948.00
2019-06-01T05:09:05.214Z,1920.00
2019-06-01T05:10:05.209Z,1848.00
2019-06-01T05:11:06.639Z,1900.00
2019-06-01T05:12:05.265Z,2092.00
2019-06-01T05:13:05.322Z,2272.00
2019-06-01T05:14:05.438Z,2468.00
2019-06-01T05:15:05.517Z,2684.00
2019-06-01T05:16:05.884Z,2948.00
2019-06-01T05:17:05.904Z,2964.00
2019-06-01T05:18:05.886Z,2984.00
2019-06-01T05:19:05.950Z,2952.00
2019-06-01T05:20:06.128Z,3016.00
2019-06-01T05:21:04.672Z,3100.00
2019-06-01T05:22:04.688Z,3156.00
2019-06-01T05:23:04.654Z,3092.00
2019-06-01T05:24:04.642Z,3184.00
2019-06-01T05:25:04.632Z,2980.00
2019-06-01T05:26:04.616Z,2856.00
2019-06-01T05:27:04.661Z,2880.00
2019-06-01T05:28:04.599Z,2820.00
2019-06-01T05:29:04.585Z,2908.00
2019-06-01T05:30:04.572Z,2868.00
2019-06-01T05:31:04.561Z,2740.00
2019-06-01T05:32:04.576Z,2524.00
2019-06-01T05:33:18.534Z,2676.00
2019-06-01T05:34:05.534Z,2728.00
2019-06-01T05:35:04.522Z,2624.00
2019-06-01T05:36:04.505Z,2640.00
2019-06-01T05:37:04.517Z,2908.00
2019-06-01T05:38:04.484Z,2896.00
2019-06-01T05:39:04.472Z,3000.00
2019-06-01T05:40:04.463Z,3040.00
2019-06-01T05:41:04.458Z,2592.00
2019-06-01T05:42:04.460Z,2840.00
2019-06-01T05:43:04.431Z,2960.00
2019-06-01T05:44:04.416Z,3088.00
2019-06-01T05:45:04.402Z,2884.00
2019-06-01T05:46:04.410Z,3020.00
2019-06-01T05:47:04.559Z,3084.00
2019-06-01T05:48:04.374Z,3052.00
2019-06-01T05:49:04.361Z,3176.00
2019-06-01T05:50:04.350Z,3032.00
2019-06-01T05:51:04.449Z,2748.00
2019-06-01T05:52:04.353Z,2772.00
2019-06-01T05:53:04.330Z,2980.00
2019-06-01T05:54:04.300Z,3248.00
2019-06-01T05:55:04.296Z,3208.00
2019-06-01T05:56:04.285Z,3132.00
2019-06-01T05:57:04.314Z,3188.00
2019-06-01T05:58:04.263Z,3012.00
2019-06-01T05:59:04.254Z,3268.00
2019-06-01T06:00:04.234Z,2968.00
2019-06-01T06:01:05.701Z,2800.00
2019-06-01T06:02:04.236Z,3220.00
2019-06-01T06:03:04.213Z,3772.00
2019-06-01T06:04:04.205Z,3544.00
2019-06-01T06:05:04.180Z,3372.00
2019-06-01T06:06:04.190Z,3400.00
2019-06-01T06:07:04.181Z,3764.00
2019-06-01T06:08:04.152Z,3984.00
2019-06-01T06:09:04.143Z,4004.00
2019-06-01T06:10:04.127Z,4364.00
2019-06-01T06:11:04.116Z,4204.00
2019-06-01T06:12:04.129Z,4244.00
2019-06-01T06:13:04.093Z,4464.00
2019-06-01T06:14:04.090Z,4056.00
2019-06-01T06:15:04.073Z,4536.00
2019-06-01T06:16:04.060Z,4200.00
2019-06-01T06:17:04.067Z,3612.00
2019-06-01T06:18:04.040Z,3512.00
2019-06-01T06:19:04.034Z,3776.00
2019-06-01T06:20:04.021Z,3944.00
2019-06-01T06:21:04.008Z,3656.00
2019-06-01T06:22:04.022Z,3704.00
2019-06-01T06:23:03.984Z,3752.00
2019-06-01T06:24:03.974Z,3560.00
2019-06-01T06:25:03.970Z,3908.00
2019-06-01T06:26:03.954Z,3756.00
2019-06-01T06:27:03.957Z,4056.00
2019-06-01T06:28:03.926Z,4776.00
2019-06-01T06:29:03.916Z,4284.00
2019-06-01T06:30:03.909Z,4104.00
2019-06-01T06:31:03.894Z,4084.00
2019-06-01T06:32:03.904Z,4332.00
2019-06-01T06:33:03.882Z,4780.00
2019-06-01T06:34:03.871Z,4152.00
2019-06-01T06:35:03.850Z,3556.00
2019-06-01T06:36:03.837Z,3440.00
2019-06-01T06:37:03.846Z,3476.00
2019-06-01T06:38:03.820Z,3524.00
2019-06-01T06:39:04.796Z,3544.00
2019-06-01T06:40:03.794Z,3740.00
2019-06-01T06:41:03.787Z,3960.00
2019-06-01T06:42:03.810Z,4176.00
2019-06-01T06:43:16.600Z,4692.00
2019-06-01T06:44:04.746Z,4576.00
2019-06-01T06:45:03.908Z,3624.00
2019-06-01T06:46:03.725Z,4464.00
2019-06-01T06:47:03.748Z,4380.00
2019-06-01T06:48:03.717Z,4724.00
2019-06-01T06:49:03.702Z,5396.00
2019-06-01T06:50:03.707Z,4628.00
2019-06-01T06:51:03.678Z,4560.00
2019-06-01T06:52:03.702Z,4372.00
2019-06-01T06:53:03.652Z,4060.00
2019-06-01T06:54:03.650Z,3924.00
2019-06-01T06:55:03.631Z,3312.00
2019-06-01T06:56:03.623Z,3872.00
2019-06-01T06:57:03.620Z,4040.00
2019-06-01T06:58:03.593Z,3852.00
2019-06-01T06:59:03.597Z,3512.00
2019-06-01T07:00:03.570Z,3884.00
2019-06-01T07:01:03.559Z,3872.00
2019-06-01T07:02:03.575Z,3940.00
2019-06-01T07:03:03.549Z,4404.00
2019-06-01T07:04:12.279Z,4140.00
2019-06-01T07:05:04.520Z,4624.00
2019-06-01T07:06:03.537Z,4272.00
2019-06-01T07:07:03.494Z,4688.00
2019-06-01T07:08:03.509Z,5068.00
2019-06-01T07:09:03.468Z,4556.00
2019-06-01T07:10:03.470Z,3792.00
2019-06-01T07:11:03.455Z,4296.00
2019-06-01T07:12:03.452Z,4980.00
2019-06-01T07:13:03.448Z,5032.00
2019-06-01T07:14:03.420Z,6696.00
2019-06-01T07:15:03.415Z,6476.00
2019-06-01T07:16:04.012Z,6280.00
2019-06-01T07:17:03.381Z,5496.00
2019-06-01T07:18:03.422Z,5396.00
2019-06-01T07:19:03.372Z,5148.00
2019-06-01T07:20:03.364Z,3788.00
2019-06-01T07:21:03.347Z,3792.00
2019-06-01T07:22:03.331Z,3716.00
2019-06-01T07:23:03.364Z,3772.00
2019-06-01T07:24:03.368Z,4244.00
2019-06-01T07:25:03.312Z,4364.00
2019-06-01T07:26:03.297Z,4468.00
2019-06-01T07:27:03.290Z,4380.00
2019-06-01T07:28:03.285Z,4280.00
2019-06-01T07:29:03.284Z,4784.00
2019-06-01T07:30:03.274Z,5212.00
2019-06-01T07:31:03.228Z,4432.00
2019-06-01T07:32:03.245Z,4140.00
2019-06-01T07:33:03.228Z,4832.00
2019-06-01T07:34:03.201Z,4392.00
2019-06-01T07:35:03.182Z,4180.00
2019-06-01T07:36:03.177Z,4380.00
2019-06-01T07:37:03.159Z,4364.00
2019-06-01T07:38:03.168Z,4504.00
2019-06-01T07:39:03.139Z,4692.00
2019-06-01T07:40:03.130Z,4984.00
2019-06-01T07:41:03.136Z,5268.00
2019-06-01T07:42:03.360Z,5060.00
2019-06-01T07:43:03.132Z,5276.00
2019-06-01T07:44:03.106Z,5000.00
2019-06-01T07:45:03.081Z,4456.00
2019-06-01T07:46:03.065Z,5628.00
2019-06-01T07:47:03.057Z,6092.00
2019-06-01T07:48:03.072Z,5148.00
2019-06-01T07:49:03.047Z,5384.00
2019-06-01T07:50:03.018Z,6640.00
2019-06-01T07:51:03.009Z,7452.00
2019-06-01T07:52:12.833Z,8092.00
2019-06-01T07:53:04.018Z,6272.00
2019-06-01T07:54:02.992Z,4132.00
2019-06-01T07:55:02.970Z,3880.00
2019-06-01T07:56:02.949Z,5048.00
2019-06-01T07:57:02.963Z,5328.00
2019-06-01T07:58:02.955Z,5448.00
2019-06-01T07:59:02.926Z,6964.00
2019-06-01T08:00:02.912Z,7976.00
2019-06-01T08:01:02.902Z,5772.00
2019-06-01T08:02:02.893Z,7244.00
2019-06-01T08:03:02.897Z,7904.00
2019-06-01T08:04:02.866Z,7656.00
2019-06-01T08:05:02.866Z,7912.00
2019-06-01T08:06:02.844Z,7680.00
2019-06-01T08:07:03.107Z,6828.00
2019-06-01T08:08:02.838Z,8228.00
2019-06-01T08:09:02.815Z,8412.00
2019-06-01T08:10:02.813Z,6316.00
2019-06-01T08:11:02.798Z,4640.00
2019-06-01T08:12:02.789Z,5280.00
2019-06-01T08:13:02.783Z,5764.00
2019-06-01T08:14:02.774Z,4912.00
2019-06-01T08:15:02.750Z,4576.00
2019-06-01T08:16:02.739Z,5120.00
2019-06-01T08:17:02.738Z,5712.00
2019-06-01T08:18:02.731Z,6664.00
2019-06-01T08:19:02.738Z,7660.00
2019-06-01T08:20:02.693Z,7632.00
2019-06-01T08:21:02.681Z,7360.00
2019-06-01T08:22:02.698Z,6828.00
2019-06-01T08:23:02.689Z,6976.00
2019-06-01T08:24:02.723Z,7544.00
2019-06-01T08:25:02.633Z,7348.00
2019-06-01T08:26:02.630Z,7500.00
2019-06-01T08:27:02.619Z,8000.00
2019-06-01T08:28:02.622Z,6812.00
2019-06-01T08:29:02.615Z,6264.00
2019-06-01T08:30:02.588Z,5956.00
2019-06-01T08:31:02.621Z,6008.00
2019-06-01T08:32:02.569Z,6180.00
2019-06-01T08:33:02.567Z,6540.00
2019-06-01T08:34:02.586Z,6728.00
2019-06-01T08:35:08.624Z,6984.00
2019-06-01T08:36:03.514Z,7420.00
2019-06-01T08:37:02.503Z,7520.00
2019-06-01T08:38:02.514Z,7212.00
2019-06-01T08:39:02.489Z,7448.00
2019-06-01T08:40:02.482Z,7948.00
2019-06-01T08:41:02.459Z,7968.00
2019-06-01T08:42:02.445Z,7160.00
2019-06-01T08:43:02.453Z,7052.00
2019-06-01T08:44:02.426Z,7912.00
2019-06-01T08:45:03.739Z,8264.00
2019-06-01T08:46:02.601Z,8496.00
2019-06-01T08:47:02.393Z,8648.00
2019-06-01T08:48:02.406Z,8752.00
2019-06-01T08:49:02.397Z,9132.00
2019-06-01T08:50:02.363Z,8440.00
2019-06-01T08:51:02.352Z,8564.00
2019-06-01T08:52:02.339Z,8072.00
2019-06-01T08:53:02.458Z,8068.00
2019-06-01T08:54:02.343Z,8124.00
2019-06-01T08:55:02.313Z,8184.00
2019-06-01T08:56:02.296Z,8036.00
2019-06-01T08:57:02.306Z,8232.00
2019-06-01T08:58:02.309Z,8284.00
2019-06-01T08:59:02.277Z,8480.00
2019-06-01T09:00:02.254Z,8728.00
2019-06-01T09:01:02.245Z,9136.00
2019-06-01T09:02:02.236Z,9324.00
2019-06-01T09:03:02.219Z,8864.00
2019-06-01T09:04:02.238Z,9832.00
2019-06-01T09:05:02.202Z,9960.00
2019-06-01T09:06:02.186Z,10016.00
2019-06-01T09:07:02.177Z,9740.00
2019-06-01T09:08:02.171Z,9728.00
2019-06-01T09:09:02.173Z,9444.00
2019-06-01T09:10:02.145Z,9288.00
2019-06-01T09:11:02.139Z,9224.00
2019-06-01T09:12:02.119Z,9428.00
2019-06-01T09:13:02.113Z,9136.00
2019-06-01T09:14:02.129Z,9544.00
2019-06-01T09:15:02.088Z,10944.00
2019-06-01T09:16:02.077Z,11048.00
2019-06-01T09:17:02.074Z,9956.00
2019-06-01T09:18:02.053Z,10440.00
2019-06-01T09:19:02.060Z,10364.00
2019-06-01T09:20:02.042Z,10568.00
2019-06-01T09:21:02.072Z,10332.00
2019-06-01T09:22:02.006Z,10216.00
2019-06-01T09:23:01.996Z,10676.00
2019-06-01T09:24:02.014Z,10352.00
2019-06-01T09:25:01.980Z,10552.00
2019-06-01T09:26:02.008Z,10596.00
2019-06-01T09:27:01.994Z,10536.00
2019-06-01T09:28:01.946Z,10816.00
2019-06-01T09:29:01.975Z,11640.00
2019-06-01T09:30:02.118Z,11660.00
2019-06-01T09:31:01.914Z,10664.00
2019-06-01T09:32:01.908Z,10640.00
2019-06-01T09:33:01.886Z,10332.00
2019-06-01T09:34:01.896Z,10728.00
2019-06-01T09:35:01.868Z,10812.00
2019-06-01T09:36:01.858Z,10832.00
2019-06-01T09:37:01.848Z,11048.00
2019-06-01T09:38:01.836Z,12216.00
2019-06-01T09:39:01.853Z,11748.00
2019-06-01T09:40:01.813Z,10608.00
2019-06-01T09:41:01.806Z,11048.00
2019-06-01T09:42:01.792Z,12072.00
2019-06-01T09:43:01.802Z,12840.00
2019-06-01T09:44:01.795Z,12516.00
2019-06-01T09:45:01.756Z,13200.00
2019-06-01T09:46:01.751Z,13108.00
2019-06-01T09:47:01.735Z,12788.00
2019-06-01T09:48:01.721Z,12592.00
2019-06-01T09:49:01.750Z,12176.00
2019-06-01T09:50:01.698Z,12480.00
2019-06-01T09:51:01.876Z,12612.00
2019-06-01T09:52:01.836Z,13084.00
2019-06-01T09:53:01.675Z,13284.00
2019-06-01T09:54:01.688Z,12888.00
2019-06-01T09:55:01.667Z,12620.00
2019-06-01T09:56:01.636Z,12960.00
2019-06-01T09:57:01.632Z,12432.00
2019-06-01T09:58:01.670Z,13056.00
2019-06-01T09:59:01.665Z,11548.00
2019-06-01T10:00:01.780Z,14152.00
2019-06-01T10:01:01.588Z,15448.00
2019-06-01T10:02:01.575Z,15332.00
2019-06-01T10:03:01.558Z,14604.00
2019-06-01T10:04:01.573Z,13920.00
2019-06-01T10:05:01.630Z,13604.00
2019-06-01T10:06:02.500Z,13728.00
2019-06-01T10:07:01.521Z,14276.00
2019-06-01T10:08:01.523Z,14476.00
2019-06-01T10:09:01.520Z,15896.00
2019-06-01T10:10:01.480Z,15656.00
2019-06-01T10:11:01.594Z,15204.00
2019-06-01T10:12:01.461Z,16896.00
2019-06-01T10:13:01.447Z,17792.00
2019-06-01T10:14:01.478Z,18880.00
2019-06-01T10:15:01.545Z,21440.00
2019-06-01T10:16:01.428Z,74464.00
2019-06-01T10:17:01.404Z,96864.00
2019-06-01T10:18:01.397Z,99040.00
2019-06-01T10:19:01.412Z,80736.00
2019-06-01T10:20:01.379Z,97920.00
2019-06-01T10:21:01.366Z,96448.00
2019-06-01T10:22:01.355Z,101152.00
2019-06-01T10:23:01.344Z,109184.00
2019-06-01T10:24:01.350Z,106144.00
2019-06-01T10:25:01.316Z,15336.00
2019-06-01T10:26:01.305Z,15204.00
2019-06-01T10:27:01.306Z,24512.00
2019-06-01T10:28:01.293Z,88000.00
2019-06-01T10:29:01.311Z,100448.00
2019-06-01T10:30:01.402Z,83520.00
2019-06-01T10:31:01.256Z,31936.00
2019-06-01T10:32:01.247Z,100160.00
2019-06-01T10:33:01.240Z,105056.00
2019-06-01T10:34:01.370Z,109952.00
2019-06-01T10:35:01.217Z,107232.00
2019-06-01T10:36:16.592Z,108512.00
2019-06-01T10:37:02.195Z,105952.00
2019-06-01T10:38:01.188Z,106272.00
2019-06-01T10:39:01.190Z,110496.00
2019-06-01T10:40:01.170Z,106432.00
2019-06-01T10:41:01.195Z,107008.00
2019-06-01T10:42:01.145Z,109472.00
2019-06-01T10:43:01.156Z,111072.00
2019-06-01T10:44:01.281Z,116096.00
2019-06-01T10:45:01.113Z,114176.00
2019-06-01T10:46:01.102Z,111968.00
2019-06-01T10:47:01.100Z,107680.00
2019-06-01T10:48:01.097Z,19456.00
2019-06-01T10:49:01.101Z,14928.00
2019-06-01T10:50:01.069Z,106688.00
2019-06-01T10:51:01.061Z,85152.00
2019-06-01T10:52:01.052Z,135104.00
2019-06-01T10:53:01.044Z,155776.00
2019-06-01T10:54:01.094Z,158944.00
2019-06-01T10:55:01.024Z,154464.00
2019-06-01T10:56:01.014Z,155232.00
2019-06-01T10:57:01.006Z,149792.00
2019-06-01T10:58:01.175Z,144544.00
2019-06-01T10:59:01.062Z,143776.00
2019-06-01T11:00:00.990Z,148640.00
2019-06-01T11:01:00.974Z,10420.00
2019-06-01T11:02:00.966Z,17216.00
2019-06-01T11:03:00.952Z,118624.00
2019-06-01T11:04:01.087Z,156512.00
2019-06-01T11:05:00.939Z,149888.00
2019-06-01T11:06:00.926Z,27456.00
2019-06-01T11:07:00.915Z,157120.00
2019-06-01T11:08:00.918Z,161120.00
2019-06-01T11:09:00.907Z,159136.00
2019-06-01T11:10:00.941Z,155008.00
2019-06-01T11:11:00.903Z,144352.00
2019-06-01T11:12:00.908Z,150816.00
2019-06-01T11:13:00.896Z,144896.00
2019-06-01T11:14:00.854Z,151040.00
2019-06-01T11:15:00.900Z,20672.00
2019-06-01T11:16:00.846Z,150336.00
2019-06-01T11:17:00.891Z,144160.00
2019-06-01T11:18:00.822Z,151744.00
2019-06-01T11:19:00.844Z,154848.00
2019-06-01T11:20:00.834Z,162304.00
2019-06-01T11:21:00.802Z,158592.00
2019-06-01T11:22:00.798Z,153152.00
2019-06-01T11:23:00.787Z,157536.00
2019-06-01T11:24:00.781Z,26368.00
2019-06-01T11:25:00.828Z,14580.00
2019-06-01T11:26:00.768Z,122016.00
2019-06-01T11:27:00.755Z,144640.00
2019-06-01T11:28:00.756Z,148384.00
2019-06-01T11:29:00.751Z,145568.00
2019-06-01T11:30:00.753Z,142944.00
2019-06-01T11:31:00.718Z,150912.00
2019-06-01T11:32:00.712Z,143584.00
2019-06-01T11:33:00.705Z,141312.00
2019-06-01T11:34:00.699Z,139712.00
2019-06-01T11:35:00.714Z,128544.00
2019-06-01T11:36:00.685Z,128864.00
2019-06-01T11:37:05.291Z,118720.00
2019-06-01T11:38:01.672Z,9860.00
2019-06-01T11:39:00.670Z,15108.00
2019-06-01T11:40:00.686Z,10532.00
2019-06-01T11:41:00.650Z,11404.00
2019-06-01T11:42:00.635Z,14204.00
2019-06-01T11:43:00.636Z,36544.00
2019-06-01T11:44:00.619Z,36480.00
2019-06-01T11:45:00.642Z,22816.00
2019-06-01T11:46:00.597Z,15872.00
2019-06-01T11:47:00.590Z,10732.00
2019-06-01T11:48:00.575Z,9640.00
2019-06-01T11:49:00.574Z,10804.00
2019-06-01T11:50:00.576Z,8784.00
2019-06-01T11:51:00.551Z,8968.00
2019-06-01T11:52:00.547Z,10932.00
2019-06-01T11:53:00.531Z,11148.00
2019-06-01T11:54:00.524Z,7596.00
2019-06-01T11:55:00.530Z,11692.00
2019-06-01T11:56:00.500Z,12088.00
2019-06-01T11:57:00.490Z,9736.00
2019-06-01T11:58:00.507Z,8628.00
2019-06-01T11:59:00.476Z,10104.00
2019-06-01T12:00:00.484Z,22880.00
2019-06-01T12:01:00.448Z,27296.00
2019-06-01T12:02:00.432Z,12064.00
2019-06-01T12:03:00.422Z,11036.00
2019-06-01T12:04:00.422Z,7728.00
2019-06-01T12:05:00.423Z,8628.00
2019-06-01T12:06:00.392Z,12080.00
2019-06-01T12:07:16.342Z,24480.00
2019-06-01T12:08:01.371Z,26400.00
2019-06-01T12:09:00.368Z,9460.00
2019-06-01T12:10:00.374Z,8012.00
2019-06-01T12:11:00.356Z,10124.00
2019-06-01T12:12:00.326Z,12444.00
2019-06-01T12:13:00.320Z,9140.00
2019-06-01T12:14:00.306Z,15164.00
2019-06-01T12:15:00.335Z,16000.00
2019-06-01T12:16:00.286Z,10532.00